sensor_id;sensor_type;location;lat;lon;timestamp;temperature;humidity
45463;SHT31;31209;49.456;11.134;2022-10-03T00:00:01;12.21;103.3
45463;SHT31;31209;49.456;11.134;2022-10-03T00:01:20;12.15;103.5
45463;SHT31;31209;49.456;11.134;2022-10-03T00:02:38;12.17;103.62
45463;SHT31;31209;49.456;11.134;2022-10-03T00:03:56;12.24;103.6
45463;SHT31;31209;49.456;11.134;2022-10-03T00:05:15;12.23;103.55
45463;SHT31;31209;49.456;11.134;2022-10-03T00:06:31;12.2;103.62
45463;SHT31;31209;49.456;11.134;2022-10-03T00:07:46;12.2;103.61
45463;SHT31;31209;49.456;11.134;2022-10-03T00:09:04;12.24;103.64
45463;SHT31;31209;49.456;11.134;2022-10-03T00:10:18;12.24;103.64
45463;SHT31;31209;49.456;11.134;2022-10-03T00:11:31;12.25;103.59
45463;SHT31;31209;49.456;11.134;2022-10-03T00:12:50;12.25;103.58
45463;SHT31;31209;49.456;11.134;2022-10-03T00:13:59;12.18;103.72
45463;SHT31;31209;49.456;11.134;2022-10-03T00:15:07;12.21;103.8
45463;SHT31;31209;49.456;11.134;2022-10-03T00:16:15;12.24;103.81
45463;SHT31;31209;49.456;11.134;2022-10-03T00:17:21;12.2;103.83
45463;SHT31;31209;49.456;11.134;2022-10-03T00:18:33;12.24;103.81
45463;SHT31;31209;49.456;11.134;2022-10-03T00:19:43;12.27;103.86
45463;SHT31;31209;49.456;11.134;2022-10-03T00:20:59;12.25;103.86
45463;SHT31;31209;49.456;11.134;2022-10-03T00:22:14;12.24;103.91
45463;SHT31;31209;49.456;11.134;2022-10-03T00:23:23;12.25;103.98
45463;SHT31;31209;49.456;11.134;2022-10-03T00:24:39;12.25;103.97
45463;SHT31;31209;49.456;11.134;2022-10-03T00:25:48;12.3;103.96
45463;SHT31;31209;49.456;11.134;2022-10-03T00:26:57;12.28;103.9
45463;SHT31;31209;49.456;11.134;2022-10-03T00:28:12;12.31;103.91
45463;SHT31;31209;49.456;11.134;2022-10-03T00:29:25;12.34;103.9
45463;SHT31;31209;49.456;11.134;2022-10-03T00:30:49;12.34;103.88
45463;SHT31;31209;49.456;11.134;2022-10-03T00:31:59;12.37;103.88
45463;SHT31;31209;49.456;11.134;2022-10-03T00:33:13;12.41;103.89
45463;SHT31;31209;49.456;11.134;2022-10-03T00:34:23;12.39;103.83
45463;SHT31;31209;49.456;11.134;2022-10-03T00:35:41;12.42;103.87
45463;SHT31;31209;49.456;11.134;2022-10-03T00:36:52;12.35;103.86
45463;SHT31;31209;49.456;11.134;2022-10-03T00:38:11;12.35;103.88
45463;SHT31;31209;49.456;11.134;2022-10-03T00:39:30;12.32;103.96
45463;SHT31;31209;49.456;11.134;2022-10-03T00:40:59;12.32;104.08
45463;SHT31;31209;49.456;11.134;2022-10-03T00:43:07;12.34;104.13
45463;SHT31;31209;49.456;11.134;2022-10-03T00:44:31;12.35;104.02
45463;SHT31;31209;49.456;11.134;2022-10-03T00:45:49;12.38;103.98
45463;SHT31;31209;49.456;11.134;2022-10-03T00:47:15;12.37;104.05
45463;SHT31;31209;49.456;11.134;2022-10-03T00:48:36;12.37;104.0
45463;SHT31;31209;49.456;11.134;2022-10-03T00:49:57;12.37;104.08
45463;SHT31;31209;49.456;11.134;2022-10-03T00:51:18;12.32;104.13
45463;SHT31;31209;49.456;11.134;2022-10-03T00:52:39;12.35;104.13
45463;SHT31;31209;49.456;11.134;2022-10-03T00:53:52;12.38;104.14
45463;SHT31;31209;49.456;11.134;2022-10-03T00:55:08;12.41;104.11
45463;SHT31;31209;49.456;11.134;2022-10-03T00:56:27;12.41;104.04
45463;SHT31;31209;49.456;11.134;2022-10-03T00:57:50;12.39;104.12
45463;SHT31;31209;49.456;11.134;2022-10-03T00:59:05;12.42;104.17
45463;SHT31;31209;49.456;11.134;2022-10-03T01:00:17;12.41;103.95
45463;SHT31;31209;49.456;11.134;2022-10-03T01:01:22;12.44;103.91
45463;SHT31;31209;49.456;11.134;2022-10-03T01:02:35;12.45;103.95
45463;SHT31;31209;49.456;11.134;2022-10-03T01:03:42;12.48;103.97
45463;SHT31;31209;49.456;11.134;2022-10-03T01:04:54;12.49;104.06
45463;SHT31;31209;49.456;11.134;2022-10-03T01:06:07;12.49;103.97
45463;SHT31;31209;49.456;11.134;2022-10-03T01:07:26;12.49;103.92
45463;SHT31;31209;49.456;11.134;2022-10-03T01:09:15;12.51;103.93
45463;SHT31;31209;49.456;11.134;2022-10-03T01:10:23;12.48;103.8
45463;SHT31;31209;49.456;11.134;2022-10-03T01:11:41;12.52;103.8
45463;SHT31;31209;49.456;11.134;2022-10-03T01:13:07;12.51;103.81
45463;SHT31;31209;49.456;11.134;2022-10-03T01:14:22;12.51;103.85
45463;SHT31;31209;49.456;11.134;2022-10-03T01:15:36;12.49;103.87
45463;SHT31;31209;49.456;11.134;2022-10-03T01:16:45;12.49;103.89
45463;SHT31;31209;49.456;11.134;2022-10-03T01:18:01;12.49;103.9
45463;SHT31;31209;49.456;11.134;2022-10-03T01:19:25;12.51;103.87
45463;SHT31;31209;49.456;11.134;2022-10-03T01:20:34;12.54;103.85
45463;SHT31;31209;49.456;11.134;2022-10-03T01:21:45;12.55;103.85
45463;SHT31;31209;49.456;11.134;2022-10-03T01:23:05;12.49;103.69
45463;SHT31;31209;49.456;11.134;2022-10-03T01:24:31;12.49;103.69
45463;SHT31;31209;49.456;11.134;2022-10-03T01:25:50;12.51;103.67
45463;SHT31;31209;49.456;11.134;2022-10-03T01:26:56;12.48;103.64
45463;SHT31;31209;49.456;11.134;2022-10-03T01:28:02;12.42;103.69
45463;SHT31;31209;49.456;11.134;2022-10-03T01:29:10;12.42;103.76
45463;SHT31;31209;49.456;11.134;2022-10-03T01:30:12;12.47;103.79
45463;SHT31;31209;49.456;11.134;2022-10-03T01:31:16;12.48;103.79
45463;SHT31;31209;49.456;11.134;2022-10-03T01:32:24;12.44;103.7
45463;SHT31;31209;49.456;11.134;2022-10-03T01:33:30;12.45;103.76
45463;SHT31;31209;49.456;11.134;2022-10-03T01:34:40;12.44;103.68
45463;SHT31;31209;49.456;11.134;2022-10-03T01:35:50;12.47;103.59
45463;SHT31;31209;49.456;11.134;2022-10-03T01:37:03;12.49;103.55
45463;SHT31;31209;49.456;11.134;2022-10-03T01:38:15;12.49;103.5
45463;SHT31;31209;49.456;11.134;2022-10-03T01:39:23;12.52;103.49
45463;SHT31;31209;49.456;11.134;2022-10-03T01:40:29;12.54;103.53
45463;SHT31;31209;49.456;11.134;2022-10-03T01:41:46;12.55;103.48
45463;SHT31;31209;49.456;11.134;2022-10-03T01:42:57;12.51;103.42
45463;SHT31;31209;49.456;11.134;2022-10-03T01:44:08;12.45;103.48
45463;SHT31;31209;49.456;11.134;2022-10-03T01:45:22;12.47;103.49
45463;SHT31;31209;49.456;11.134;2022-10-03T01:46:36;12.47;103.52
45463;SHT31;31209;49.456;11.134;2022-10-03T01:47:43;12.48;103.56
45463;SHT31;31209;49.456;11.134;2022-10-03T01:48:52;12.44;103.49
45463;SHT31;31209;49.456;11.134;2022-10-03T01:50:03;12.38;103.33
45463;SHT31;31209;49.456;11.134;2022-10-03T01:51:10;12.35;103.47
45463;SHT31;31209;49.456;11.134;2022-10-03T01:52:22;12.35;103.61
45463;SHT31;31209;49.456;11.134;2022-10-03T01:53:32;12.38;103.62
45463;SHT31;31209;49.456;11.134;2022-10-03T01:54:42;12.41;103.54
45463;SHT31;31209;49.456;11.134;2022-10-03T01:55:51;12.37;103.6
45463;SHT31;31209;49.456;11.134;2022-10-03T01:57:00;12.34;103.52
45463;SHT31;31209;49.456;11.134;2022-10-03T01:58:06;12.38;103.61
45463;SHT31;31209;49.456;11.134;2022-10-03T01:59:11;12.41;103.47
45463;SHT31;31209;49.456;11.134;2022-10-03T02:00:17;12.37;103.42
45463;SHT31;31209;49.456;11.134;2022-10-03T02:01:23;12.37;103.44
45463;SHT31;31209;49.456;11.134;2022-10-03T02:02:30;12.38;103.57
45463;SHT31;31209;49.456;11.134;2022-10-03T02:03:37;12.39;103.54
45463;SHT31;31209;49.456;11.134;2022-10-03T02:04:44;12.39;103.54
45463;SHT31;31209;49.456;11.134;2022-10-03T02:05:56;12.38;103.42
45463;SHT31;31209;49.456;11.134;2022-10-03T02:07:06;12.38;103.45
45463;SHT31;31209;49.456;11.134;2022-10-03T02:08:23;12.34;103.52
45463;SHT31;31209;49.456;11.134;2022-10-03T02:09:32;12.32;103.6
45463;SHT31;31209;49.456;11.134;2022-10-03T02:10:40;12.37;103.58
45463;SHT31;31209;49.456;11.134;2022-10-03T02:11:58;12.37;103.54
45463;SHT31;31209;49.456;11.134;2022-10-03T02:13:08;12.34;103.55
45463;SHT31;31209;49.456;11.134;2022-10-03T02:14:19;12.32;103.61
45463;SHT31;31209;49.456;11.134;2022-10-03T02:15:25;12.37;103.5
45463;SHT31;31209;49.456;11.134;2022-10-03T02:16:34;12.37;103.4
45463;SHT31;31209;49.456;11.134;2022-10-03T02:17:44;12.41;103.33
45463;SHT31;31209;49.456;11.134;2022-10-03T02:18:50;12.38;103.36
45463;SHT31;31209;49.456;11.134;2022-10-03T02:20:00;12.37;103.18
45463;SHT31;31209;49.456;11.134;2022-10-03T02:21:09;12.35;103.15
45463;SHT31;31209;49.456;11.134;2022-10-03T02:22:14;12.32;103.28
45463;SHT31;31209;49.456;11.134;2022-10-03T02:23:24;12.31;103.38
45463;SHT31;31209;49.456;11.134;2022-10-03T02:24:37;12.31;103.33
45463;SHT31;31209;49.456;11.134;2022-10-03T02:25:57;12.3;103.35
45463;SHT31;31209;49.456;11.134;2022-10-03T02:27:30;12.3;103.39
45463;SHT31;31209;49.456;11.134;2022-10-03T02:28:54;12.28;103.29
45463;SHT31;31209;49.456;11.134;2022-10-03T02:30:08;12.3;103.34
45463;SHT31;31209;49.456;11.134;2022-10-03T02:31:30;12.23;103.31
45463;SHT31;31209;49.456;11.134;2022-10-03T02:38:17;12.3;103.62
45463;SHT31;31209;49.456;11.134;2022-10-03T02:44:50;12.27;103.23
45463;SHT31;31209;49.456;11.134;2022-10-03T02:51:34;12.23;103.25
45463;SHT31;31209;49.456;11.134;2022-10-03T02:53:14;12.24;103.27
45463;SHT31;31209;49.456;11.134;2022-10-03T02:54:52;12.23;103.29
45463;SHT31;31209;49.456;11.134;2022-10-03T02:56:14;12.17;103.17
45463;SHT31;31209;49.456;11.134;2022-10-03T02:57:40;12.17;103.37
45463;SHT31;31209;49.456;11.134;2022-10-03T02:59:04;12.13;103.29
45463;SHT31;31209;49.456;11.134;2022-10-03T03:00:16;12.14;103.35
45463;SHT31;31209;49.456;11.134;2022-10-03T03:01:46;12.14;103.24
45463;SHT31;31209;49.456;11.134;2022-10-03T03:07:00;12.28;102.9
45463;SHT31;31209;49.456;11.134;2022-10-03T03:09:16;12.28;102.99
45463;SHT31;31209;49.456;11.134;2022-10-03T03:10:33;12.24;103.12
45463;SHT31;31209;49.456;11.134;2022-10-03T03:12:07;12.25;103.15
45463;SHT31;31209;49.456;11.134;2022-10-03T03:13:30;12.24;102.97
45463;SHT31;31209;49.456;11.134;2022-10-03T03:14:54;12.25;102.92
45463;SHT31;31209;49.456;11.134;2022-10-03T03:16:16;12.25;102.89
45463;SHT31;31209;49.456;11.134;2022-10-03T03:17:29;12.24;102.94
45463;SHT31;31209;49.456;11.134;2022-10-03T03:18:35;12.24;102.99
45463;SHT31;31209;49.456;11.134;2022-10-03T03:19:48;12.25;102.95
45463;SHT31;31209;49.456;11.134;2022-10-03T03:21:02;12.21;102.88
45463;SHT31;31209;49.456;11.134;2022-10-03T03:22:17;12.14;103.03
45463;SHT31;31209;49.456;11.134;2022-10-03T03:23:37;12.06;103.25
45463;SHT31;31209;49.456;11.134;2022-10-03T03:24:52;12.04;103.34
45463;SHT31;31209;49.456;11.134;2022-10-03T03:26:07;12.06;103.34
45463;SHT31;31209;49.456;11.134;2022-10-03T03:27:23;12.11;103.18
45463;SHT31;31209;49.456;11.134;2022-10-03T03:28:33;12.14;103.13
45463;SHT31;31209;49.456;11.134;2022-10-03T03:29:41;12.14;103.01
45463;SHT31;31209;49.456;11.134;2022-10-03T03:30:51;12.13;103.0
45463;SHT31;31209;49.456;11.134;2022-10-03T03:32:03;12.13;103.06
45463;SHT31;31209;49.456;11.134;2022-10-03T03:33:12;12.13;102.96
45463;SHT31;31209;49.456;11.134;2022-10-03T03:34:21;12.15;102.81
45463;SHT31;31209;49.456;11.134;2022-10-03T03:35:33;12.08;102.81
45463;SHT31;31209;49.456;11.134;2022-10-03T03:36:42;12.08;102.97
45463;SHT31;31209;49.456;11.134;2022-10-03T03:37:52;12.06;103.0
45463;SHT31;31209;49.456;11.134;2022-10-03T03:39:05;12.07;102.93
45463;SHT31;31209;49.456;11.134;2022-10-03T03:40:26;12.1;102.87
45463;SHT31;31209;49.456;11.134;2022-10-03T03:41:45;12.11;102.79
45463;SHT31;31209;49.456;11.134;2022-10-03T03:43:05;12.07;102.81
45463;SHT31;31209;49.456;11.134;2022-10-03T03:44:25;12.07;102.9
45463;SHT31;31209;49.456;11.134;2022-10-03T03:45:36;12.1;102.81
45463;SHT31;31209;49.456;11.134;2022-10-03T03:46:57;12.08;102.88
45463;SHT31;31209;49.456;11.134;2022-10-03T03:48:12;12.08;102.83
45463;SHT31;31209;49.456;11.134;2022-10-03T03:49:29;12.1;102.72
45463;SHT31;31209;49.456;11.134;2022-10-03T03:50:39;12.04;102.74
45463;SHT31;31209;49.456;11.134;2022-10-03T03:51:53;12.07;102.8
45463;SHT31;31209;49.456;11.134;2022-10-03T03:53:09;12.08;102.77
45463;SHT31;31209;49.456;11.134;2022-10-03T03:54:31;12.06;102.84
45463;SHT31;31209;49.456;11.134;2022-10-03T03:55:49;12.07;102.79
45463;SHT31;31209;49.456;11.134;2022-10-03T03:57:04;12.07;102.88
45463;SHT31;31209;49.456;11.134;2022-10-03T03:58:17;12.06;102.88
45463;SHT31;31209;49.456;11.134;2022-10-03T03:59:32;12.06;102.85
45463;SHT31;31209;49.456;11.134;2022-10-03T04:00:47;12.06;102.85
45463;SHT31;31209;49.456;11.134;2022-10-03T04:02:04;12.03;102.75
45463;SHT31;31209;49.456;11.134;2022-10-03T04:03:18;12.04;102.71
45463;SHT31;31209;49.456;11.134;2022-10-03T04:04:40;12.04;102.74
45463;SHT31;31209;49.456;11.134;2022-10-03T04:05:57;12.0;102.64
45463;SHT31;31209;49.456;11.134;2022-10-03T04:07:10;12.04;102.63
45463;SHT31;31209;49.456;11.134;2022-10-03T04:08:28;12.0;102.52
45463;SHT31;31209;49.456;11.134;2022-10-03T04:09:50;11.99;102.54
45463;SHT31;31209;49.456;11.134;2022-10-03T04:11:04;11.94;102.61
45463;SHT31;31209;49.456;11.134;2022-10-03T04:12:20;11.92;102.68
45463;SHT31;31209;49.456;11.134;2022-10-03T04:13:43;11.89;102.67
45463;SHT31;31209;49.456;11.134;2022-10-03T04:14:59;11.93;102.59
45463;SHT31;31209;49.456;11.134;2022-10-03T04:16:13;11.92;102.55
45463;SHT31;31209;49.456;11.134;2022-10-03T04:17:29;11.9;102.63
45463;SHT31;31209;49.456;11.134;2022-10-03T04:18:54;11.87;102.74
45463;SHT31;31209;49.456;11.134;2022-10-03T04:20:08;11.89;102.66
45463;SHT31;31209;49.456;11.134;2022-10-03T04:21:27;11.85;102.66
45463;SHT31;31209;49.456;11.134;2022-10-03T04:22:47;11.9;102.67
45463;SHT31;31209;49.456;11.134;2022-10-03T04:24:03;11.85;102.62
45463;SHT31;31209;49.456;11.134;2022-10-03T04:25:26;11.85;102.48
45463;SHT31;31209;49.456;11.134;2022-10-03T04:26:43;11.83;102.45
45463;SHT31;31209;49.456;11.134;2022-10-03T04:27:59;11.81;102.5
45463;SHT31;31209;49.456;11.134;2022-10-03T04:29:21;11.84;102.54
45463;SHT31;31209;49.456;11.134;2022-10-03T04:30:32;11.83;102.39
45463;SHT31;31209;49.456;11.134;2022-10-03T04:31:39;11.76;102.49
45463;SHT31;31209;49.456;11.134;2022-10-03T04:32:53;11.8;102.58
45463;SHT31;31209;49.456;11.134;2022-10-03T04:34:13;11.79;102.65
45463;SHT31;31209;49.456;11.134;2022-10-03T04:35:29;11.77;102.83
45463;SHT31;31209;49.456;11.134;2022-10-03T04:36:48;11.77;102.77
45463;SHT31;31209;49.456;11.134;2022-10-03T04:38:05;11.8;102.76
45463;SHT31;31209;49.456;11.134;2022-10-03T04:39:17;11.81;102.62
45463;SHT31;31209;49.456;11.134;2022-10-03T04:40:29;11.76;102.75
45463;SHT31;31209;49.456;11.134;2022-10-03T04:41:49;11.8;102.75
45463;SHT31;31209;49.456;11.134;2022-10-03T04:43:03;11.81;102.61
45463;SHT31;31209;49.456;11.134;2022-10-03T04:44:14;11.84;102.53
45463;SHT31;31209;49.456;11.134;2022-10-03T04:45:34;11.83;102.59
45463;SHT31;31209;49.456;11.134;2022-10-03T04:46:42;11.83;102.56
45463;SHT31;31209;49.456;11.134;2022-10-03T04:47:51;11.83;102.51
45463;SHT31;31209;49.456;11.134;2022-10-03T04:48:58;11.77;102.42
45463;SHT31;31209;49.456;11.134;2022-10-03T04:50:12;11.72;102.62
45463;SHT31;31209;49.456;11.134;2022-10-03T04:51:22;11.77;102.76
45463;SHT31;31209;49.456;11.134;2022-10-03T04:52:31;11.79;102.72
45463;SHT31;31209;49.456;11.134;2022-10-03T04:53:43;11.81;102.7
45463;SHT31;31209;49.456;11.134;2022-10-03T04:54:53;11.83;102.64
45463;SHT31;31209;49.456;11.134;2022-10-03T04:56:12;11.8;102.63
45463;SHT31;31209;49.456;11.134;2022-10-03T04:57:24;11.8;102.64
45463;SHT31;31209;49.456;11.134;2022-10-03T04:58:35;11.77;102.41
45463;SHT31;31209;49.456;11.134;2022-10-03T04:59:41;11.77;102.24
45463;SHT31;31209;49.456;11.134;2022-10-03T05:00:56;11.76;102.47
45463;SHT31;31209;49.456;11.134;2022-10-03T05:02:02;11.79;102.5
45463;SHT31;31209;49.456;11.134;2022-10-03T05:03:11;11.74;102.44
45463;SHT31;31209;49.456;11.134;2022-10-03T05:04:21;11.76;102.53
45463;SHT31;31209;49.456;11.134;2022-10-03T05:05:30;11.8;102.48
45463;SHT31;31209;49.456;11.134;2022-10-03T05:06:44;11.76;102.49
45463;SHT31;31209;49.456;11.134;2022-10-03T05:07:53;11.76;102.58
45463;SHT31;31209;49.456;11.134;2022-10-03T05:09:03;11.8;102.53
45463;SHT31;31209;49.456;11.134;2022-10-03T05:10:22;11.76;102.5
45463;SHT31;31209;49.456;11.134;2022-10-03T05:11:42;11.79;102.59
45463;SHT31;31209;49.456;11.134;2022-10-03T05:13:01;11.79;102.71
45463;SHT31;31209;49.456;11.134;2022-10-03T05:14:09;11.81;102.57
45463;SHT31;31209;49.456;11.134;2022-10-03T05:15:19;11.81;102.54
45463;SHT31;31209;49.456;11.134;2022-10-03T05:16:30;11.8;102.59
45463;SHT31;31209;49.456;11.134;2022-10-03T05:17:43;11.83;102.63
45463;SHT31;31209;49.456;11.134;2022-10-03T05:18:50;11.8;102.61
45463;SHT31;31209;49.456;11.134;2022-10-03T05:20:02;11.79;102.72
45463;SHT31;31209;49.456;11.134;2022-10-03T05:21:13;11.77;102.6
45463;SHT31;31209;49.456;11.134;2022-10-03T05:22:21;11.77;102.52
45463;SHT31;31209;49.456;11.134;2022-10-03T05:23:33;11.77;102.57
45463;SHT31;31209;49.456;11.134;2022-10-03T05:24:45;11.74;102.53
45463;SHT31;31209;49.456;11.134;2022-10-03T05:25:55;11.73;102.58
45463;SHT31;31209;49.456;11.134;2022-10-03T05:27:07;11.73;102.62
45463;SHT31;31209;49.456;11.134;2022-10-03T05:28:18;11.76;102.64
45463;SHT31;31209;49.456;11.134;2022-10-03T05:29:29;11.73;102.48
45463;SHT31;31209;49.456;11.134;2022-10-03T05:30:40;11.69;102.55
45463;SHT31;31209;49.456;11.134;2022-10-03T05:31:49;11.67;102.67
45463;SHT31;31209;49.456;11.134;2022-10-03T05:32:56;11.66;102.5
45463;SHT31;31209;49.456;11.134;2022-10-03T05:34:06;11.69;102.47
45463;SHT31;31209;49.456;11.134;2022-10-03T05:35:20;11.69;102.52
45463;SHT31;31209;49.456;11.134;2022-10-03T05:36:30;11.69;102.41
45463;SHT31;31209;49.456;11.134;2022-10-03T05:37:46;11.7;102.34
45463;SHT31;31209;49.456;11.134;2022-10-03T05:39:21;11.72;102.37
45463;SHT31;31209;49.456;11.134;2022-10-03T05:40:25;11.72;102.53
45463;SHT31;31209;49.456;11.134;2022-10-03T05:41:30;11.73;102.55
45463;SHT31;31209;49.456;11.134;2022-10-03T05:42:36;11.76;102.56
45463;SHT31;31209;49.456;11.134;2022-10-03T05:43:46;11.76;102.57
45463;SHT31;31209;49.456;11.134;2022-10-03T05:44:58;11.74;102.5
45463;SHT31;31209;49.456;11.134;2022-10-03T05:46:06;11.73;102.49
45463;SHT31;31209;49.456;11.134;2022-10-03T05:47:23;11.7;102.53
45463;SHT31;31209;49.456;11.134;2022-10-03T05:48:32;11.73;102.61
45463;SHT31;31209;49.456;11.134;2022-10-03T05:49:52;11.73;102.61
45463;SHT31;31209;49.456;11.134;2022-10-03T05:51:07;11.72;102.36
45463;SHT31;31209;49.456;11.134;2022-10-03T05:52:26;11.67;102.14
45463;SHT31;31209;49.456;11.134;2022-10-03T05:53:56;11.62;102.53
45463;SHT31;31209;49.456;11.134;2022-10-03T05:55:19;11.62;102.6
45463;SHT31;31209;49.456;11.134;2022-10-03T05:56:38;11.66;102.59
45463;SHT31;31209;49.456;11.134;2022-10-03T05:57:59;11.69;102.51
45463;SHT31;31209;49.456;11.134;2022-10-03T05:59:21;11.67;102.54
45463;SHT31;31209;49.456;11.134;2022-10-03T06:00:39;11.69;102.42
45463;SHT31;31209;49.456;11.134;2022-10-03T06:02:00;11.67;102.57
45463;SHT31;31209;49.456;11.134;2022-10-03T06:03:36;11.7;102.45
45463;SHT31;31209;49.456;11.134;2022-10-03T06:04:55;11.7;102.45
45463;SHT31;31209;49.456;11.134;2022-10-03T06:06:10;11.72;102.48
45463;SHT31;31209;49.456;11.134;2022-10-03T06:07:18;11.67;102.73
45463;SHT31;31209;49.456;11.134;2022-10-03T06:08:38;11.57;102.69
45463;SHT31;31209;49.456;11.134;2022-10-03T06:10:03;11.62;102.75
45463;SHT31;31209;49.456;11.134;2022-10-03T06:11:19;11.7;102.78
45463;SHT31;31209;49.456;11.134;2022-10-03T06:12:32;11.74;102.73
45463;SHT31;31209;49.456;11.134;2022-10-03T06:13:50;11.76;102.57
45463;SHT31;31209;49.456;11.134;2022-10-03T06:15:13;11.76;102.62
45463;SHT31;31209;49.456;11.134;2022-10-03T06:16:25;11.77;102.55
45463;SHT31;31209;49.456;11.134;2022-10-03T06:18:11;11.76;102.5
45463;SHT31;31209;49.456;11.134;2022-10-03T06:19:28;11.77;102.52
45463;SHT31;31209;49.456;11.134;2022-10-03T06:27:09;11.81;102.48
45463;SHT31;31209;49.456;11.134;2022-10-03T06:28:35;11.85;102.57
45463;SHT31;31209;49.456;11.134;2022-10-03T06:29:58;11.89;102.45
45463;SHT31;31209;49.456;11.134;2022-10-03T06:31:25;11.84;102.4
45463;SHT31;31209;49.456;11.134;2022-10-03T06:33:12;11.83;102.25
45463;SHT31;31209;49.456;11.134;2022-10-03T06:34:32;11.81;102.38
45463;SHT31;31209;49.456;11.134;2022-10-03T06:36:20;11.83;102.22
45463;SHT31;31209;49.456;11.134;2022-10-03T06:37:45;11.83;102.23
45463;SHT31;31209;49.456;11.134;2022-10-03T06:39:21;11.89;102.25
45463;SHT31;31209;49.456;11.134;2022-10-03T06:41:17;11.92;102.24
45463;SHT31;31209;49.456;11.134;2022-10-03T06:42:43;11.89;102.36
45463;SHT31;31209;49.456;11.134;2022-10-03T06:43:58;11.93;102.34
45463;SHT31;31209;49.456;11.134;2022-10-03T06:45:54;11.93;102.41
45463;SHT31;31209;49.456;11.134;2022-10-03T06:47:23;11.85;101.99
45463;SHT31;31209;49.456;11.134;2022-10-03T06:48:46;11.92;102.09
45463;SHT31;31209;49.456;11.134;2022-10-03T06:50:14;11.97;102.12
45463;SHT31;31209;49.456;11.134;2022-10-03T06:51:44;12.0;101.86
45463;SHT31;31209;49.456;11.134;2022-10-03T06:52:59;12.02;101.86
45463;SHT31;31209;49.456;11.134;2022-10-03T06:54:46;12.0;102.05
45463;SHT31;31209;49.456;11.134;2022-10-03T06:56:03;12.03;102.22
45463;SHT31;31209;49.456;11.134;2022-10-03T06:57:18;12.03;102.23
45463;SHT31;31209;49.456;11.134;2022-10-03T06:58:36;12.06;102.07
45463;SHT31;31209;49.456;11.134;2022-10-03T07:00:13;12.1;102.02
45463;SHT31;31209;49.456;11.134;2022-10-03T07:01:37;12.08;102.16
45463;SHT31;31209;49.456;11.134;2022-10-03T07:03:02;12.1;102.16
45463;SHT31;31209;49.456;11.134;2022-10-03T07:04:21;12.1;102.11
45463;SHT31;31209;49.456;11.134;2022-10-03T07:06:00;12.06;101.89
45463;SHT31;31209;49.456;11.134;2022-10-03T07:07:24;12.11;101.88
45463;SHT31;31209;49.456;11.134;2022-10-03T07:08:48;12.18;101.94
45463;SHT31;31209;49.456;11.134;2022-10-03T07:10:23;12.15;101.96
45463;SHT31;31209;49.456;11.134;2022-10-03T07:11:47;12.14;101.73
45463;SHT31;31209;49.456;11.134;2022-10-03T07:13:20;12.13;101.77
45463;SHT31;31209;49.456;11.134;2022-10-03T07:14:46;12.15;101.87
45463;SHT31;31209;49.456;11.134;2022-10-03T07:16:16;12.17;101.8
45463;SHT31;31209;49.456;11.134;2022-10-03T07:17:37;12.17;101.67
45463;SHT31;31209;49.456;11.134;2022-10-03T07:19:57;12.18;101.88
45463;SHT31;31209;49.456;11.134;2022-10-03T07:21:23;12.21;101.6
45463;SHT31;31209;49.456;11.134;2022-10-03T07:23:08;12.23;101.72
45463;SHT31;31209;49.456;11.134;2022-10-03T07:24:33;12.25;101.68
45463;SHT31;31209;49.456;11.134;2022-10-03T07:25:54;12.23;101.64
45463;SHT31;31209;49.456;11.134;2022-10-03T07:27:15;12.3;101.75
45463;SHT31;31209;49.456;11.134;2022-10-03T07:28:34;12.31;101.36
45463;SHT31;31209;49.456;11.134;2022-10-03T07:30:06;12.3;101.17
45463;SHT31;31209;49.456;11.134;2022-10-03T07:31:15;12.27;101.48
45463;SHT31;31209;49.456;11.134;2022-10-03T07:32:36;12.3;101.26
45463;SHT31;31209;49.456;11.134;2022-10-03T07:34:14;12.28;101.2
45463;SHT31;31209;49.456;11.134;2022-10-03T07:35:37;12.32;101.01
45463;SHT31;31209;49.456;11.134;2022-10-03T07:36:54;12.34;101.16
45463;SHT31;31209;49.456;11.134;2022-10-03T07:38:17;12.38;101.32
45463;SHT31;31209;49.456;11.134;2022-10-03T07:39:51;12.37;101.17
45463;SHT31;31209;49.456;11.134;2022-10-03T07:41:19;12.42;101.12
45463;SHT31;31209;49.456;11.134;2022-10-03T07:42:35;12.47;101.21
45463;SHT31;31209;49.456;11.134;2022-10-03T07:43:50;12.48;101.37
45463;SHT31;31209;49.456;11.134;2022-10-03T07:45:06;12.45;101.38
45463;SHT31;31209;49.456;11.134;2022-10-03T07:46:31;12.48;100.93
45463;SHT31;31209;49.456;11.134;2022-10-03T07:47:53;12.51;101.1
45463;SHT31;31209;49.456;11.134;2022-10-03T07:49:13;12.52;101.32
45463;SHT31;31209;49.456;11.134;2022-10-03T07:50:34;12.47;101.02
45463;SHT31;31209;49.456;11.134;2022-10-03T07:51:49;12.48;101.14
45463;SHT31;31209;49.456;11.134;2022-10-03T07:53:13;12.48;100.88
45463;SHT31;31209;49.456;11.134;2022-10-03T07:54:36;12.47;100.53
45463;SHT31;31209;49.456;11.134;2022-10-03T07:55:53;12.39;100.47
45463;SHT31;31209;49.456;11.134;2022-10-03T07:57:10;12.37;100.46
45463;SHT31;31209;49.456;11.134;2022-10-03T07:58:25;12.44;100.44
45463;SHT31;31209;49.456;11.134;2022-10-03T07:59:50;12.78;100.59
45463;SHT31;31209;49.456;11.134;2022-10-03T08:01:26;12.79;100.87
45463;SHT31;31209;49.456;11.134;2022-10-03T08:02:43;12.85;100.53
45463;SHT31;31209;49.456;11.134;2022-10-03T08:04:11;12.89;100.22
45463;SHT31;31209;49.456;11.134;2022-10-03T08:05:23;12.92;100.01
45463;SHT31;31209;49.456;11.134;2022-10-03T08:06:36;12.96;99.82
45463;SHT31;31209;49.456;11.134;2022-10-03T08:07:54;13.08;99.97
45463;SHT31;31209;49.456;11.134;2022-10-03T08:10:16;13.08;99.97
45463;SHT31;31209;49.456;11.134;2022-10-03T08:11:37;13.13;100.1
45463;SHT31;31209;49.456;11.134;2022-10-03T08:13:00;13.03;100.48
45463;SHT31;31209;49.456;11.134;2022-10-03T08:14:16;13.05;100.3
45463;SHT31;31209;49.456;11.134;2022-10-03T08:15:22;13.01;99.89
45463;SHT31;31209;49.456;11.134;2022-10-03T08:16:47;13.02;99.59
45463;SHT31;31209;49.456;11.134;2022-10-03T08:18:04;13.06;99.53
45463;SHT31;31209;49.456;11.134;2022-10-03T08:19:21;13.06;99.54
45463;SHT31;31209;49.456;11.134;2022-10-03T08:20:48;12.99;99.32
45463;SHT31;31209;49.456;11.134;2022-10-03T08:21:57;13.01;99.44